Time;durP1;ratioP1;P1;durP2;ratioP2;P2;SDS_P1;SDS_P2;PMS_P1;PMS_P2;Temp;Humidity;BMP_temperature;BMP_pressure;BME280_temperature;BME280_humidity;BME280_pressure;Samples;Min_cycle;Max_cycle;Signal;HPM_P1;HPM_P2
2022/01/09 00:00:49;;;;;;;21.13;16.33;;;5.40;99.90;;;;;;5033343;28;20048;-85
2022/01/09 00:03:15;;;;;;;20.48;15.57;;;5.30;99.90;;;;;;5032946;28;20053;-86
2022/01/09 00:05:40;;;;;;;21.85;16.17;;;4.10;99.90;;;;;;5016392;28;20041;-85
2022/01/09 00:08:06;;;;;;;21.90;16.70;;;4.40;99.90;;;;;;5034465;28;20057;-85
2022/01/09 00:10:33;;;;;;;24.60;17.80;;;4.40;99.90;;;;;;5032916;28;20045;-85
2022/01/09 00:12:59;;;;;;;21.88;16.83;;;4.40;99.90;;;;;;5016797;28;20049;-85
2022/01/09 00:15:24;;;;;;;22.65;17.20;;;4.40;99.90;;;;;;4999872;28;20136;-85
2022/01/09 00:17:50;;;;;;;26.73;18.30;;;5.90;99.90;;;;;;5032857;28;20053;-85
2022/01/09 00:20:16;;;;;;;23.02;17.35;;;4.30;99.90;;;;;;5000004;28;20524;-85
2022/01/09 00:22:48;;;;;;;22.55;16.85;;;4.30;99.90;;;;;;5033436;28;20097;-85
2022/01/09 00:25:15;;;;;;;21.35;16.50;;;4.60;99.90;;;;;;5017135;28;20056;-85
2022/01/09 00:27:41;;;;;;;20.45;16.40;;;4.80;99.90;;;;;;5032357;28;20054;-85
2022/01/09 00:30:09;;;;;;;21.88;16.92;;;5.70;99.90;;;;;;5031616;28;20057;-85
2022/01/09 00:32:36;;;;;;;25.17;17.70;;;4.50;99.90;;;;;;5015498;28;20286;-85
2022/01/09 00:35:16;;;;;;;23.00;17.15;;;4.40;99.90;;;;;;5032764;28;20042;-86
2022/01/09 00:37:54;;;;;;;25.45;17.60;;;4.40;99.90;;;;;;5033257;28;20129;-85
2022/01/09 00:40:22;;;;;;;24.00;16.95;;;4.40;99.90;;;;;;4998845;28;20136;-84
2022/01/09 00:42:48;;;;;;;23.42;17.73;;;4.40;99.90;;;;;;5032984;28;20053;-85
2022/01/09 00:45:40;;;;;;;24.63;18.45;;;4.30;99.90;;;;;;4983811;28;20060;-86
2022/01/09 00:48:25;;;;;;;23.88;17.48;;;4.30;99.90;;;;;;5032394;28;20092;-85
2022/01/09 00:51:01;;;;;;;21.95;17.05;;;4.50;99.90;;;;;;5032135;28;20057;-85
2022/01/09 00:53:32;;;;;;;27.30;18.80;;;4.40;99.90;;;;;;5015887;28;20060;-86
2022/01/09 00:55:59;;;;;;;23.55;17.00;;;4.30;99.90;;;;;;5016078;28;20620;-85
2022/01/09 00:58:38;;;;;;;23.80;17.25;;;4.40;99.90;;;;;;5030570;28;20065;-86
2022/01/09 01:01:05;;;;;;;25.23;17.17;;;5.40;99.90;;;;;;5016875;28;20050;-85
2022/01/09 01:03:41;;;;;;;26.95;18.50;;;4.30;99.90;;;;;;5032092;28;20445;-85
2022/01/09 01:06:13;;;;;;;23.15;17.90;;;4.40;99.90;;;;;;5032154;28;20046;-86
2022/01/09 01:08:42;;;;;;;26.17;18.25;;;4.30;99.90;;;;;;5031450;28;20501;-86
2022/01/09 01:11:35;;;;;;;25.17;18.50;;;4.70;99.90;;;;;;5013887;28;20069;-85
2022/01/09 01:14:39;;;;;;;25.40;18.10;;;5.70;99.90;;;;;;5008044;28;20058;-86
2022/01/09 01:17:17;;;;;;;28.58;19.42;;;4.30;99.90;;;;;;5033198;28;20555;-85
2022/01/09 01:19:43;;;;;;;26.80;19.48;;;4.70;99.90;;;;;;5029337;28;20084;-85
2022/01/09 01:22:41;;;;;;;30.92;20.77;;;4.40;99.90;;;;;;5017265;28;20056;-85
2022/01/09 01:29:33;;;;;;;28.05;20.30;;;3.20;99.90;;;;;;5048846;28;20052;-84
2022/01/09 01:33:19;;;;;;;31.55;20.48;;;4.30;99.90;;;;;;5018731;28;20067;-84
2022/01/09 01:36:36;;;;;;;34.90;22.00;;;4.40;99.90;;;;;;5047116;28;20122;-85
2022/01/09 01:39:46;;;;;;;27.95;19.98;;;4.40;99.90;;;;;;4976427;28;20054;-85
2022/01/09 01:43:11;;;;;;;28.80;19.88;;;4.40;99.90;;;;;;4989971;28;20112;-84
2022/01/09 01:46:28;;;;;;;31.60;20.48;;;3.20;99.90;;;;;;4970905;28;20471;-84
2022/01/09 01:49:58;;;;;;;39.03;22.08;;;4.40;99.90;;;;;;4971047;28;20462;-84
2022/01/09 02:01:01;;;;;;;35.63;21.88;;;4.30;99.90;;;;;;4957133;28;20054;-84
2022/01/09 02:04:37;;;;;;;39.50;23.20;;;4.40;99.90;;;;;;4956237;28;20529;-85
2022/01/09 02:07:25;;;;;;;40.33;23.80;;;4.40;99.90;;;;;;4918898;28;20063;-84
2022/01/09 02:14:36;;;;;;;42.08;24.80;;;4.40;99.90;;;;;;4965856;28;20055;-85
2022/01/09 02:18:20;;;;;;;43.80;26.13;;;4.40;99.90;;;;;;4970191;28;20058;-83
2022/01/09 02:29:01;;;;;;;55.70;28.08;;;4.40;99.90;;;;;;4969815;28;20046;-84
2022/01/09 02:33:06;;;;;;;55.50;29.35;;;4.40;99.90;;;;;;4951788;28;20046;-85
2022/01/09 02:39:29;;;;;;;64.97;31.45;;;4.40;99.90;;;;;;4956960;28;20102;-84
2022/01/09 02:42:52;;;;;;;61.97;29.42;;;4.40;99.90;;;;;;4855870;29;20531;-84
2022/01/09 02:49:54;;;;;;;69.68;30.75;;;4.40;99.90;;;;;;4905323;29;20055;-84
2022/01/09 02:53:01;;;;;;;58.13;29.67;;;5.80;99.90;;;;;;4899340;28;20496;-84
2022/01/09 02:56:09;;;;;;;77.90;32.42;;;4.80;99.90;;;;;;4900099;29;20288;-84
2022/01/09 03:06:27;;;;;;;60.88;27.83;;;4.70;99.90;;;;;;4967939;28;20455;-85
2022/01/09 03:09:41;;;;;;;70.78;29.05;;;4.80;99.90;;;;;;4930566;28;20629;-83
2022/01/09 03:13:05;;;;;;;56.78;26.02;;;4.80;99.90;;;;;;4986089;28;20094;-83
2022/01/09 03:19:46;;;;;;;76.65;28.23;;;4.70;99.90;;;;;;4969703;28;20050;-83
2022/01/09 03:23:44;;;;;;;65.88;27.02;;;4.80;99.90;;;;;;4976094;28;20073;-84
2022/01/09 03:38:05;;;;;;;43.33;17.92;;;5.00;99.90;;;;;;4951698;28;20533;-84
2022/01/09 03:41:28;;;;;;;54.58;18.00;;;5.00;99.90;;;;;;5007998;28;20085;-84
2022/01/09 03:47:17;;;;;;;50.42;17.13;;;5.10;99.90;;;;;;4991475;28;20054;-84
2022/01/09 03:50:19;;;;;;;49.92;16.25;;;5.20;99.90;;;;;;4957725;28;20054;-83
2022/01/09 03:53:18;;;;;;;51.10;14.57;;;5.10;99.90;;;;;;5002288;28;20045;-84
2022/01/09 03:55:46;;;;;;;43.30;13.10;;;5.20;99.90;;;;;;4975210;28;20053;-84
2022/01/09 03:58:38;;;;;;;39.92;11.02;;;5.10;99.90;;;;;;4991617;28;20042;-84
2022/01/09 04:01:43;;;;;;;37.88;10.18;;;5.20;99.90;;;;;;5007670;28;20046;-84
2022/01/09 04:04:21;;;;;;;38.95;7.88;;;6.30;99.90;;;;;;4992264;28;20116;-84
2022/01/09 04:07:07;;;;;;;38.95;8.35;;;5.40;99.90;;;;;;5006929;28;20415;-85
2022/01/09 04:09:49;;;;;;;48.95;7.97;;;5.40;99.90;;;;;;4991782;28;20445;-84
2022/01/09 04:12:46;;;;;;;46.25;6.43;;;5.50;99.90;;;;;;4994373;28;20046;-83
2022/01/09 04:15:46;;;;;;;46.53;8.32;;;5.60;99.90;;;;;;4972861;28;20062;-82
2022/01/09 04:18:53;;;;;;;58.00;8.50;;;5.70;99.90;;;;;;4953031;29;20059;-82
2022/01/09 04:21:53;;;;;;;55.50;9.55;;;5.70;99.90;;;;;;4951973;29;20093;-83
2022/01/09 04:25:28;;;;;;;64.50;9.73;;;5.80;99.90;;;;;;4937064;29;20059;-83
2022/01/09 04:28:07;;;;;;;59.08;9.15;;;5.80;99.90;;;;;;4920304;29;20530;-83
2022/01/09 04:30:43;;;;;;;69.53;9.10;;;5.80;99.90;;;;;;4938192;29;20051;-83
2022/01/09 04:33:27;;;;;;;70.75;8.95;;;5.80;99.90;;;;;;4948106;29;20515;-83
2022/01/09 04:35:53;;;;;;;65.63;9.38;;;5.90;99.90;;;;;;4953540;28;20047;-83
2022/01/09 04:38:50;;;;;;;67.63;8.88;;;7.10;99.90;;;;;;4991608;28;20093;-83
2022/01/09 04:41:23;;;;;;;65.97;8.32;;;6.00;99.90;;;;;;4976730;28;20057;-83
2022/01/09 04:44:10;;;;;;;59.25;8.35;;;5.90;99.90;;;;;;4991376;28;20062;-83
2022/01/09 04:47:26;;;;;;;82.38;12.55;;;5.90;99.90;;;;;;4980620;28;20569;-83
2022/01/09 04:50:05;;;;;;;63.13;8.02;;;5.90;99.90;;;;;;5019795;28;20061;-83
2022/01/09 04:52:39;;;;;;;57.40;6.68;;;6.00;99.90;;;;;;5032796;28;20119;-82
2022/01/09 04:55:36;;;;;;;48.85;7.07;;;6.00;99.90;;;;;;5032543;28;20119;-83
2022/01/09 04:58:11;;;;;;;55.58;8.60;;;5.90;99.90;;;;;;5032262;28;20049;-81
2022/01/09 05:00:59;;;;;;;51.42;7.15;;;5.90;99.90;;;;;;5032172;28;20394;-83
2022/01/09 05:03:46;;;;;;;59.65;7.65;;;7.10;99.90;;;;;;5032846;28;20072;-82
2022/01/09 05:06:15;;;;;;;58.92;7.15;;;5.90;99.90;;;;;;5032563;28;20116;-83
2022/01/09 05:08:41;;;;;;;58.20;7.00;;;5.90;99.90;;;;;;5015822;28;20053;-83
2022/01/09 05:11:09;;;;;;;58.97;7.07;;;6.00;99.90;;;;;;5031589;28;20056;-84
2022/01/09 05:13:38;;;;;;;58.88;7.22;;;6.30;99.90;;;;;;5031935;28;20060;-84
2022/01/09 05:16:16;;;;;;;45.75;6.35;;;5.80;99.90;;;;;;5030897;28;20096;-83
2022/01/09 05:19:07;;;;;;;47.78;6.05;;;5.80;99.90;;;;;;5016393;28;20084;-83
2022/01/09 05:21:58;;;;;;;47.75;7.15;;;5.80;99.90;;;;;;5029686;28;20136;-83
2022/01/09 05:25:06;;;;;;;41.42;7.38;;;7.10;99.90;;;;;;5018536;28;20128;-82
2022/01/09 05:27:34;;;;;;;48.35;6.38;;;5.80;99.90;;;;;;5028945;28;20049;-83
2022/01/09 05:30:30;;;;;;;47.47;6.22;;;5.80;99.90;;;;;;4981877;28;20061;-84
2022/01/09 05:32:57;;;;;;;64.38;7.15;;;5.80;99.90;;;;;;5031374;28;20478;-83
2022/01/09 05:35:33;;;;;;;43.08;7.05;;;7.20;99.90;;;;;;5015817;28;20405;-83
2022/01/09 05:38:02;;;;;;;42.65;5.60;;;6.30;99.90;;;;;;4993554;28;20518;-83
2022/01/09 05:40:49;;;;;;;45.50;5.80;;;5.70;99.90;;;;;;4946812;28;20111;-83
2022/01/09 05:43:15;;;;;;;41.08;5.78;;;5.70;99.90;;;;;;4977507;28;20073;-83
2022/01/09 05:45:51;;;;;;;43.05;5.63;;;5.70;99.90;;;;;;4977048;28;20054;-83
2022/01/09 05:48:18;;;;;;;41.50;5.90;;;6.70;99.90;;;;;;4992479;28;20061;-83
2022/01/09 05:50:59;;;;;;;45.67;5.88;;;5.70;99.90;;;;;;5008171;28;20414;-84
2022/01/09 05:53:36;;;;;;;29.40;4.82;;;6.30;99.90;;;;;;5008698;28;20081;-84
2022/01/09 05:56:14;;;;;;;32.58;4.03;;;5.60;99.90;;;;;;4995970;28;20077;-87
2022/01/09 05:58:42;;;;;;;44.33;5.13;;;5.50;99.90;;;;;;5009428;28;20054;-84
2022/01/09 06:01:13;;;;;;;42.40;5.68;;;7.30;99.90;;;;;;4993493;28;20132;-84
2022/01/09 06:03:45;;;;;;;29.17;4.30;;;5.50;99.90;;;;;;4993888;28;20577;-84
2022/01/09 06:06:16;;;;;;;37.40;4.80;;;5.50;99.90;;;;;;4978392;28;20056;-84
2022/01/09 06:08:54;;;;;;;36.05;4.88;;;5.50;99.90;;;;;;4989339;28;20413;-84
2022/01/09 06:11:39;;;;;;;35.88;5.03;;;5.50;99.90;;;;;;5030143;28;20052;-83
2022/01/09 06:14:20;;;;;;;43.47;4.82;;;5.50;99.90;;;;;;5030663;28;20041;-84
2022/01/09 06:16:46;;;;;;;38.00;4.75;;;5.40;99.90;;;;;;5030761;28;20453;-84
2022/01/09 06:19:13;;;;;;;39.92;4.85;;;4.20;99.90;;;;;;5014106;28;20092;-84
2022/01/09 06:21:40;;;;;;;37.13;4.20;;;5.40;99.90;;;;;;5013698;28;20045;-84
2022/01/09 06:24:11;;;;;;;33.50;4.13;;;5.30;99.90;;;;;;5014855;28;20119;-84
2022/01/09 06:26:38;;;;;;;39.13;5.75;;;5.40;99.90;;;;;;4996815;28;20115;-84
2022/01/09 06:29:13;;;;;;;28.98;4.47;;;5.30;99.90;;;;;;5029788;28;20418;-84
2022/01/09 06:31:39;;;;;;;30.90;3.92;;;5.30;99.90;;;;;;5029924;28;20136;-84
2022/01/09 06:34:11;;;;;;;29.63;5.55;;;5.30;99.90;;;;;;5014744;28;20081;-84
2022/01/09 06:36:37;;;;;;;31.88;4.07;;;5.30;99.90;;;;;;5030851;28;20610;-84
2022/01/09 06:39:03;;;;;;;30.90;5.85;;;6.00;99.90;;;;;;5031032;28;20183;-83
2022/01/09 06:41:29;;;;;;;32.38;4.97;;;5.20;99.90;;;;;;5029689;28;20048;-83
2022/01/09 06:43:54;;;;;;;37.33;4.70;;;5.20;99.90;;;;;;5013386;28;20057;-84
2022/01/09 06:46:22;;;;;;;32.03;4.20;;;5.20;99.90;;;;;;5013262;28;20370;-84
2022/01/09 06:48:54;;;;;;;28.45;4.93;;;5.20;99.90;;;;;;5029519;28;20045;-84
2022/01/09 06:51:20;;;;;;;30.58;3.75;;;5.80;99.90;;;;;;5028985;28;20490;-84
2022/01/09 06:53:46;;;;;;;35.67;3.85;;;5.10;99.90;;;;;;5029110;28;20069;-84
2022/01/09 06:56:18;;;;;;;33.38;4.80;;;5.10;99.90;;;;;;5029514;28;20207;-84
2022/01/09 06:58:45;;;;;;;34.85;4.38;;;5.40;99.90;;;;;;5030582;28;20037;-84
2022/01/09 07:01:13;;;;;;;40.75;5.15;;;5.10;99.90;;;;;;5013400;28;20107;-84
2022/01/09 07:03:44;;;;;;;29.38;4.75;;;5.40;99.90;;;;;;5013836;28;20128;-84
2022/01/09 07:06:10;;;;;;;32.70;5.22;;;5.10;99.90;;;;;;5029524;28;20080;-84
2022/01/09 07:08:37;;;;;;;26.10;4.15;;;5.40;99.90;;;;;;5013030;28;20049;-84
2022/01/09 07:11:03;;;;;;;40.75;5.18;;;6.60;99.90;;;;;;5013212;28;20406;-84
2022/01/09 07:13:35;;;;;;;29.85;4.13;;;5.40;99.90;;;;;;5013569;28;20057;-85
2022/01/09 07:16:07;;;;;;;36.38;5.30;;;5.10;99.90;;;;;;5029240;28;20452;-84
2022/01/09 07:18:32;;;;;;;36.67;4.35;;;6.50;99.90;;;;;;5012588;28;20058;-84
2022/01/09 07:20:58;;;;;;;31.40;4.72;;;5.60;99.90;;;;;;5030646;28;20084;-84
2022/01/09 07:23:25;;;;;;;27.48;4.32;;;5.10;99.90;;;;;;5012688;28;20104;-86
2022/01/09 07:25:52;;;;;;;27.65;3.65;;;6.70;99.90;;;;;;4995361;28;20144;-83
2022/01/09 07:28:19;;;;;;;27.38;3.95;;;5.50;99.90;;;;;;5028083;28;20448;-83
2022/01/09 07:30:45;;;;;;;30.77;3.75;;;4.40;99.90;;;;;;5024821;28;20337;-84
2022/01/09 07:33:11;;;;;;;36.15;3.75;;;5.10;99.90;;;;;;5028508;28;20152;-84
2022/01/09 07:35:37;;;;;;;28.15;3.40;;;5.10;99.90;;;;;;5028773;28;20119;-84
2022/01/09 07:38:04;;;;;;;25.77;4.82;;;5.00;99.90;;;;;;5028742;28;20049;-84
2022/01/09 07:40:31;;;;;;;21.92;3.38;;;5.00;99.90;;;;;;5027743;28;20149;-83
2022/01/09 07:43:02;;;;;;;27.52;4.65;;;5.00;99.90;;;;;;5030262;28;20532;-84
2022/01/09 07:45:44;;;;;;;25.95;3.92;;;4.90;99.90;;;;;;5000545;28;20117;-84
2022/01/09 07:48:11;;;;;;;27.10;3.30;;;4.90;99.90;;;;;;5030116;28;20049;-84
2022/01/09 07:50:41;;;;;;;29.15;4.07;;;4.90;99.90;;;;;;5029412;28;20490;-84
2022/01/09 07:53:07;;;;;;;31.35;3.40;;;4.90;99.90;;;;;;5015881;28;20480;-84
2022/01/09 07:55:48;;;;;;;21.58;3.22;;;5.10;99.90;;;;;;5016286;28;20041;-84
2022/01/09 07:58:22;;;;;;;18.20;3.05;;;4.80;99.90;;;;;;5006609;28;20053;-83
2022/01/09 08:00:53;;;;;;;26.55;4.13;;;5.10;99.90;;;;;;5006691;28;20203;-84
2022/01/09 08:03:19;;;;;;;26.33;3.63;;;4.90;99.90;;;;;;5032454;28;20065;-83
2022/01/09 08:05:44;;;;;;;16.88;3.30;;;4.80;99.90;;;;;;4999918;28;20124;-83
2022/01/09 08:08:23;;;;;;;23.15;4.25;;;6.00;99.90;;;;;;5018243;28;20064;-84
2022/01/09 08:11:02;;;;;;;26.30;3.35;;;5.40;99.90;;;;;;5032965;28;20141;-85
2022/01/09 08:13:36;;;;;;;22.02;3.05;;;4.80;99.90;;;;;;5017069;28;20147;-83
2022/01/09 08:16:24;;;;;;;19.08;3.00;;;5.60;99.90;;;;;;5002397;28;20058;-84
2022/01/09 08:18:58;;;;;;;23.38;3.13;;;5.20;99.90;;;;;;5032478;28;20049;-85
2022/01/09 08:21:27;;;;;;;16.63;3.28;;;5.00;99.90;;;;;;5033641;28;20509;-84
2022/01/09 08:23:53;;;;;;;16.35;2.85;;;4.70;99.90;;;;;;5031218;28;20150;-84
2022/01/09 08:26:24;;;;;;;15.32;2.83;;;4.70;99.90;;;;;;5031922;28;20069;-85
2022/01/09 08:28:53;;;;;;;25.83;4.32;;;6.10;99.90;;;;;;5015395;28;20053;-84
2022/01/09 08:31:19;;;;;;;15.88;2.97;;;4.70;99.90;;;;;;5033554;28;20049;-82
2022/01/09 08:33:47;;;;;;;22.08;3.40;;;4.70;99.90;;;;;;5015147;28;20053;-84
2022/01/09 08:36:15;;;;;;;19.00;3.63;;;4.70;99.90;;;;;;5032305;28;20049;-83
2022/01/09 08:38:42;;;;;;;20.63;4.47;;;5.20;99.90;;;;;;5031479;28;20132;-84
2022/01/09 08:41:08;;;;;;;18.85;2.75;;;4.70;99.90;;;;;;5032889;28;20195;-84
2022/01/09 08:43:36;;;;;;;18.17;2.70;;;4.70;99.90;;;;;;5015771;28;20132;-83
2022/01/09 08:46:02;;;;;;;17.00;2.78;;;4.60;99.90;;;;;;5015490;28;20053;-85
2022/01/09 08:48:27;;;;;;;16.38;2.97;;;4.60;99.90;;;;;;4999553;28;20149;-84
2022/01/09 08:51:03;;;;;;;13.50;2.85;;;4.60;99.90;;;;;;5031314;28;20053;-84
2022/01/09 08:53:29;;;;;;;18.80;3.22;;;4.60;99.90;;;;;;5032597;28;20045;-85
2022/01/09 08:55:54;;;;;;;18.38;3.05;;;4.60;99.90;;;;;;5032442;28;20056;-89
2022/01/09 08:58:20;;;;;;;18.63;2.95;;;4.70;99.90;;;;;;5032410;28;20049;-87
2022/01/09 09:00:46;;;;;;;15.52;2.50;;;4.70;99.90;;;;;;4998828;28;20533;-89
2022/01/09 09:03:11;;;;;;;15.80;3.38;;;4.70;99.90;;;;;;5031485;28;20089;-88
2022/01/09 09:05:37;;;;;;;21.70;3.42;;;5.50;99.90;;;;;;5014980;28;20522;-87
2022/01/09 09:08:05;;;;;;;16.15;2.47;;;4.70;99.90;;;;;;5031245;28;20045;-88
2022/01/09 09:10:30;;;;;;;17.77;2.63;;;4.80;99.90;;;;;;4998592;28;20099;-88
2022/01/09 09:12:56;;;;;;;13.80;2.92;;;4.80;99.90;;;;;;5030984;28;20477;-84
2022/01/09 09:15:22;;;;;;;16.48;3.08;;;4.80;99.90;;;;;;5031034;28;20175;-91
2022/01/09 09:17:48;;;;;;;16.20;2.70;;;4.90;99.90;;;;;;5014538;28;20095;-90
2022/01/09 09:20:14;;;;;;;17.48;3.03;;;4.90;99.90;;;;;;4998621;28;20132;-88
2022/01/09 09:22:39;;;;;;;18.45;2.83;;;4.90;99.90;;;;;;5031641;28;20048;-87
2022/01/09 09:25:06;;;;;;;20.42;3.75;;;4.90;99.90;;;;;;5031853;28;20057;-88
2022/01/09 09:27:32;;;;;;;15.85;3.40;;;5.00;99.90;;;;;;5016749;28;20053;-90
2022/01/09 09:30:02;;;;;;;21.70;3.78;;;5.50;99.90;;;;;;5034122;28;20501;-88
2022/01/09 09:32:28;;;;;;;15.00;3.35;;;5.50;99.90;;;;;;5018544;28;20128;-88
2022/01/09 09:34:54;;;;;;;16.33;3.00;;;5.00;99.90;;;;;;5008120;28;20083;-88
2022/01/09 09:37:20;;;;;;;20.23;3.25;;;5.30;99.90;;;;;;5040393;28;20092;-89
2022/01/09 09:39:48;;;;;;;19.23;3.03;;;5.10;99.90;;;;;;5014720;28;20393;-85
2022/01/09 09:42:15;;;;;;;26.92;5.30;;;5.10;99.90;;;;;;5030963;28;20164;-84
2022/01/09 09:44:47;;;;;;;19.70;3.72;;;5.20;99.90;;;;;;5030615;28;20044;-83
2022/01/09 09:47:28;;;;;;;16.92;3.70;;;5.10;99.90;;;;;;5004002;28;20050;-83
2022/01/09 09:49:56;;;;;;;19.60;3.10;;;5.20;99.90;;;;;;4973363;28;20162;-83
2022/01/09 09:52:24;;;;;;;23.00;3.10;;;6.30;99.90;;;;;;4973904;28;20062;-83
2022/01/09 09:55:15;;;;;;;19.98;2.80;;;5.20;99.90;;;;;;4975633;28;20050;-82
2022/01/09 09:57:48;;;;;;;24.00;4.20;;;5.20;99.90;;;;;;4989626;28;20062;-83
2022/01/09 10:00:29;;;;;;;15.65;3.08;;;5.10;99.90;;;;;;4974697;28;20073;-82
2022/01/09 10:03:25;;;;;;;14.80;3.00;;;5.20;99.90;;;;;;4988735;28;20066;-82
2022/01/09 10:05:52;;;;;;;17.08;2.80;;;5.10;99.90;;;;;;4960411;28;20054;-82
2022/01/09 10:08:48;;;;;;;13.43;2.55;;;5.10;99.90;;;;;;4973175;28;20074;-82
2022/01/09 10:11:15;;;;;;;16.45;3.15;;;5.10;99.90;;;;;;4974020;28;20054;-84
2022/01/09 10:14:30;;;;;;;13.80;2.10;;;5.10;99.90;;;;;;4988161;28;20585;-83
2022/01/09 10:17:16;;;;;;;19.73;2.72;;;5.00;99.90;;;;;;4975692;28;20057;-85
2022/01/09 10:20:13;;;;;;;15.70;2.78;;;5.00;99.90;;;;;;5031523;28;20119;-83
2022/01/09 10:22:41;;;;;;;18.90;2.63;;;5.10;99.90;;;;;;5030262;28;20053;-84
2022/01/09 10:25:36;;;;;;;14.18;2.10;;;6.40;99.90;;;;;;5030864;28;20048;-84
2022/01/09 10:28:36;;;;;;;13.60;2.97;;;5.10;99.90;;;;;;5012443;28;20084;-84
2022/01/09 10:31:15;;;;;;;10.48;2.10;;;4.60;99.90;;;;;;5029634;28;20107;-83
2022/01/09 10:33:41;;;;;;;13.52;2.35;;;5.50;99.90;;;;;;5013623;28;20517;-84
2022/01/09 10:36:18;;;;;;;13.88;2.20;;;5.20;99.90;;;;;;4980320;28;20063;-83
2022/01/09 10:38:45;;;;;;;12.70;2.03;;;5.30;99.90;;;;;;5010966;28;20054;-83
2022/01/09 10:41:14;;;;;;;10.90;2.10;;;5.30;99.90;;;;;;5028555;28;20076;-83
2022/01/09 10:43:51;;;;;;;13.25;2.30;;;5.30;99.90;;;;;;4997876;28;20062;-84
2022/01/09 10:46:27;;;;;;;15.05;2.10;;;5.30;99.90;;;;;;5028521;28;20060;-82
2022/01/09 10:49:13;;;;;;;10.45;2.38;;;5.30;99.90;;;;;;5031620;28;20192;-82
2022/01/09 10:51:39;;;;;;;8.23;2.25;;;5.30;99.90;;;;;;5029415;28;20053;-83
2022/01/09 10:54:07;;;;;;;8.02;2.08;;;5.30;99.90;;;;;;5012842;28;20046;-83
2022/01/09 10:56:33;;;;;;;10.50;2.10;;;5.20;99.90;;;;;;5029595;28;20053;-83
2022/01/09 10:58:58;;;;;;;6.32;1.92;;;5.30;99.90;;;;;;5028628;28;20049;-82
2022/01/09 11:01:26;;;;;;;15.27;2.30;;;5.20;99.90;;;;;;5029130;28;20055;-83
2022/01/09 11:03:57;;;;;;;10.10;2.05;;;5.40;99.90;;;;;;5030507;28;20049;-84
2022/01/09 11:06:24;;;;;;;14.48;2.30;;;5.20;99.90;;;;;;5029206;28;20088;-83
2022/01/09 11:08:56;;;;;;;11.25;2.53;;;5.20;99.90;;;;;;5013369;28;20052;-85
2022/01/09 11:13:49;;;;;;;8.73;1.77;;;5.30;99.90;;;;;;5030233;28;20049;-85
2022/01/09 11:16:33;;;;;;;9.30;1.83;;;6.00;99.90;;;;;;5028633;28;20061;-84
2022/01/09 11:19:03;;;;;;;;;;;5.40;99.90;;;;;;5015679;28;20391;-85
2022/01/09 11:21:29;;;;;;;12.60;2.38;;;5.30;99.90;;;;;;5029061;28;19921;-85
2022/01/09 11:24:28;;;;;;;10.32;1.95;;;5.30;99.90;;;;;;5028998;28;20224;-85
2022/01/09 11:27:12;;;;;;;8.02;2.20;;;5.40;99.90;;;;;;5028578;28;20045;-84
2022/01/09 11:30:10;;;;;;;15.20;2.22;;;5.50;99.90;;;;;;5029857;28;20057;-84
2022/01/09 11:32:48;;;;;;;10.15;1.90;;;5.50;99.90;;;;;;5014708;28;20046;-85
2022/01/09 11:35:42;;;;;;;10.73;2.10;;;5.50;99.90;;;;;;5028534;28;20140;-83
2022/01/09 11:38:08;;;;;;;12.65;2.28;;;5.60;99.90;;;;;;5028500;28;20053;-82
2022/01/09 11:40:34;;;;;;;9.77;1.90;;;5.60;99.90;;;;;;5028808;28;20099;-83
2022/01/09 11:43:01;;;;;;;11.32;2.13;;;5.60;99.90;;;;;;5030268;28;20136;-82
2022/01/09 11:45:39;;;;;;;11.68;2.30;;;5.70;99.90;;;;;;5028861;28;20044;-81
2022/01/09 11:48:06;;;;;;;12.93;2.15;;;5.70;99.90;;;;;;5012198;28;20300;-81
2022/01/09 11:50:32;;;;;;;9.70;2.30;;;5.80;99.90;;;;;;5028993;28;20482;-82
2022/01/09 11:52:59;;;;;;;12.82;2.22;;;6.00;99.90;;;;;;4996318;28;20193;-81
2022/01/09 11:55:36;;;;;;;12.07;2.30;;;6.00;99.90;;;;;;5029149;28;20041;-82
2022/01/09 11:58:06;;;;;;;18.10;3.25;;;6.20;99.90;;;;;;5028710;28;20092;-83
2022/01/09 12:00:42;;;;;;;11.93;2.30;;;6.20;99.90;;;;;;5028716;28;20045;-83
2022/01/09 12:03:26;;;;;;;15.68;2.95;;;6.30;99.90;;;;;;5028224;28;20095;-83
2022/01/09 12:06:01;;;;;;;14.20;2.55;;;6.30;99.90;;;;;;5028331;28;20107;-83
2022/01/09 12:08:27;;;;;;;11.38;2.67;;;6.40;99.90;;;;;;5012002;28;20053;-82
2022/01/09 12:10:53;;;;;;;13.52;2.90;;;6.30;99.90;;;;;;5012409;28;20041;-84
2022/01/09 12:13:39;;;;;;;15.35;3.10;;;6.40;99.90;;;;;;5029570;28;20050;-83
2022/01/09 12:16:07;;;;;;;14.90;2.92;;;6.40;99.90;;;;;;5011532;28;20053;-86
2022/01/09 12:18:39;;;;;;;11.10;2.55;;;6.40;99.90;;;;;;5012208;28;20093;-83
2022/01/09 12:21:05;;;;;;;9.55;2.03;;;6.50;99.90;;;;;;5028295;28;20045;-83
2022/01/09 12:23:31;;;;;;;16.35;2.47;;;6.50;99.90;;;;;;5028336;28;20080;-83
2022/01/09 12:25:57;;;;;;;13.52;2.45;;;6.40;99.90;;;;;;5029519;28;20085;-83
2022/01/09 12:28:25;;;;;;;11.07;2.05;;;6.70;99.90;;;;;;5029139;28;20502;-83
2022/01/09 12:31:00;;;;;;;13.88;2.22;;;6.30;99.90;;;;;;5012132;28;20132;-81
2022/01/09 12:33:31;;;;;;;10.02;2.03;;;6.30;99.90;;;;;;5011762;28;20053;-83
2022/01/09 12:36:07;;;;;;;12.40;2.28;;;6.20;99.90;;;;;;5012039;28;20052;-82
2022/01/09 12:38:35;;;;;;;11.25;2.33;;;6.20;99.90;;;;;;4999637;28;20791;-82
2022/01/09 12:41:05;;;;;;;12.50;2.35;;;6.10;99.90;;;;;;5033151;28;20049;-82
2022/01/09 12:43:32;;;;;;;10.48;2.20;;;6.20;99.90;;;;;;5031593;28;20483;-82
2022/01/09 12:45:57;;;;;;;8.93;1.98;;;6.30;99.90;;;;;;5031787;28;20129;-84
2022/01/09 12:48:28;;;;;;;16.48;2.60;;;6.40;99.90;;;;;;5030926;28;20125;-83
2022/01/09 12:51:07;;;;;;;8.52;2.47;;;6.50;99.90;;;;;;5015140;28;20103;-84
2022/01/09 12:53:37;;;;;;;12.73;2.67;;;6.40;99.90;;;;;;5031652;28;20850;-84
2022/01/09 12:56:05;;;;;;;11.85;2.20;;;6.40;99.90;;;;;;5030758;28;20091;-85
2022/01/09 12:58:32;;;;;;;10.80;2.33;;;6.50;99.90;;;;;;5014058;28;20369;-83
2022/01/09 13:01:00;;;;;;;12.85;2.83;;;6.50;99.90;;;;;;5030487;28;20080;-83
2022/01/09 13:03:30;;;;;;;12.38;2.42;;;6.50;99.90;;;;;;5030821;28;20085;-84
2022/01/09 13:05:57;;;;;;;12.70;2.35;;;6.50;99.90;;;;;;4999425;28;20045;-84
2022/01/09 13:08:23;;;;;;;17.23;2.67;;;6.40;99.90;;;;;;5032105;28;20057;-85
2022/01/09 13:10:56;;;;;;;10.38;2.20;;;6.30;99.90;;;;;;5014721;28;20041;-83
2022/01/09 13:13:26;;;;;;;12.35;2.35;;;6.30;99.90;;;;;;5030820;28;20049;-83
2022/01/09 13:15:52;;;;;;;13.30;3.72;;;6.50;99.90;;;;;;5031319;28;20371;-83
2022/01/09 13:18:19;;;;;;;11.63;2.08;;;6.40;99.90;;;;;;5014660;28;20052;-82
2022/01/09 13:20:44;;;;;;;8.85;2.28;;;6.30;99.90;;;;;;4998866;28;20057;-84
2022/01/09 13:23:10;;;;;;;14.60;2.10;;;6.10;99.90;;;;;;5030950;28;20163;-85
2022/01/09 13:25:46;;;;;;;12.32;1.95;;;6.10;99.90;;;;;;4997807;28;20052;-86
2022/01/09 13:28:27;;;;;;;7.95;2.50;;;6.00;99.90;;;;;;5014017;28;20532;-82
2022/01/09 13:30:59;;;;;;;11.90;2.03;;;6.00;99.90;;;;;;5031737;28;20129;-88
2022/01/09 13:33:25;;;;;;;10.70;2.35;;;6.50;99.90;;;;;;5030795;28;20060;-82
2022/01/09 13:35:50;;;;;;;8.90;1.88;;;6.10;99.90;;;;;;5014655;28;20132;-84
2022/01/09 13:38:18;;;;;;;17.23;2.67;;;6.20;99.90;;;;;;5014323;28;20088;-87
2022/01/09 13:40:44;;;;;;;13.20;2.58;;;6.10;99.90;;;;;;5014378;28;20132;-83
2022/01/09 13:43:10;;;;;;;12.23;2.08;;;6.20;99.90;;;;;;5030455;28;20124;-86
2022/01/09 13:45:39;;;;;;;12.05;2.05;;;6.10;99.90;;;;;;5030622;28;20042;-84
2022/01/09 13:48:05;;;;;;;8.85;2.00;;;6.20;99.90;;;;;;5030733;28;20067;-86
2022/01/09 13:50:35;;;;;;;14.00;2.75;;;6.30;99.90;;;;;;5030597;28;20525;-85
2022/01/09 13:53:13;;;;;;;10.93;1.65;;;6.20;99.90;;;;;;5030781;28;20429;-85
2022/01/09 13:55:39;;;;;;;9.77;3.05;;;6.20;99.90;;;;;;5013616;28;20088;-83
2022/01/09 13:58:09;;;;;;;8.80;2.05;;;6.30;99.90;;;;;;5030414;28;20128;-82
2022/01/09 14:00:39;;;;;;;7.63;1.55;;;6.20;99.90;;;;;;5029867;28;20046;-82
2022/01/09 14:03:08;;;;;;;9.25;1.40;;;6.20;99.90;;;;;;5013968;28;20049;-83
2022/01/09 14:05:47;;;;;;;7.45;1.75;;;6.20;99.90;;;;;;5030875;28;20052;-83
2022/01/09 14:08:14;;;;;;;6.13;1.38;;;6.40;99.90;;;;;;5031259;28;20057;-82
2022/01/09 14:10:47;;;;;;;8.95;2.08;;;6.20;99.90;;;;;;5030520;28;20441;-82
2022/01/09 14:13:23;;;;;;;6.28;1.20;;;6.20;99.90;;;;;;5031578;28;20057;-83
2022/01/09 14:15:50;;;;;;;7.35;1.20;;;6.20;99.90;;;;;;5031089;28;20041;-83
2022/01/09 14:18:29;;;;;;;5.25;1.27;;;6.10;99.90;;;;;;5013523;28;20141;-82
2022/01/09 14:21:03;;;;;;;6.72;1.45;;;6.10;99.90;;;;;;5029780;28;20103;-83
2022/01/09 14:23:32;;;;;;;5.40;1.33;;;6.10;99.90;;;;;;5030206;28;20089;-83
2022/01/09 14:26:14;;;;;;;4.60;1.30;;;6.00;99.90;;;;;;5029277;28;20811;-83
2022/01/09 14:28:41;;;;;;;7.57;1.50;;;6.00;99.90;;;;;;5013933;28;20132;-82
2022/01/09 14:31:09;;;;;;;5.57;1.20;;;6.00;99.90;;;;;;5030759;28;20103;-83
2022/01/09 14:33:37;;;;;;;7.32;1.58;;;5.90;99.90;;;;;;5030571;28;20111;-86
2022/01/09 14:36:03;;;;;;;5.53;1.10;;;5.80;99.90;;;;;;4996244;28;20049;-83